Flight Track Log - Related Links

Times and Time Zones

All times are in EDT time to prevent confusion due to time zone crossing. See the DAL3799 flight status page for this flight to view local times or setup timezone preferences in your user account.

Time Position Orientation Groundspeed Altitude Reporting Facility
EDT Latitude Longitude Course Direction KTS MPH feet Rate Location/Type
Wed 11:17:09 PM 42.2292 -83.3369 71° East 154 177 1,500  Level Cleveland Center
Wed 11:18:03 PM 42.2553 -83.2903 53° Northeast 214 246 2,900 1,636 Climbing Cleveland Center
Wed 11:18:26 PM 42.2644 -83.2572 69° East 215 247 3,600 1,770 Climbing Cleveland Center
Wed 11:19:04 PM 42.2614 -83.2092 95° East 244 281 4,700 1,672 Climbing Cleveland Center
Wed 11:19:27 PM 42.2561 -83.1614 98° East 276 318 5,300 2,118 Climbing Cleveland Center
Wed 11:20:00 PM 42.6642 -83.1974 12° North  Level FlightAware Approximate
Wed 11:20:29 PM 42.2206 -83.0758 119° Southeast 290 334 7,700  Level Cleveland Center
Wed 11:21:00 PM 42.7822 -83.1604 16° North  Level FlightAware Approximate
Wed 11:21:05 PM 42.1925 -83.0242 126° Southeast 283 326 9,700  Level Cleveland Center
Wed 11:22:00 PM 42.8889 -83.1111 71° East  Level FlightAware Approximate
Wed 11:22:00 PM 42.2258 -82.9244 66° East 360 414 10,200  Level Cleveland Center
Wed 11:23:25 PM 42.3428 -82.8108 36° Northeast 363 418 13,000 1,377 Climbing Cleveland Center
Wed 11:24:02 PM 42.4031 -82.8186 355° North 340 391 13,000  Level Cleveland Center
Wed 11:25:03 PM 42.4814 -82.8553 341° North 337 388 13,000  Level Cleveland Center
Wed 11:26:02 PM 42.5619 -82.9003 338° Northwest 331 381 13,000 1,150 Level Cleveland Center
Wed 11:27:03 PM 42.6358 -82.9567 331° Northwest 310 357 15,300 2,000 Climbing Cleveland Center
Wed 11:28:02 PM 42.7175 -82.9344 11° North 289 333 17,000 1,412 Climbing Cleveland Center
Wed 11:29:02 PM 42.7903 -82.8353 45° Northeast 291 335 18,100 1,190 Climbing Cleveland Center
Wed 11:30:03 PM 42.8633 -82.7331 46° Northeast 337 388 19,400 1,289 Climbing Cleveland Center
Wed 11:31:03 PM 42.9297 -82.6219 51° Northeast 355 409 20,700 1,340 Climbing Cleveland Center
Wed 11:31:37 PM 42.9333 -82.5167 87° East 390 449 21,500 1,213 Climbing Toronto Center
Wed 11:32:37 PM 42.9833 -82.3833 63° Northeast 400 460 22,600 800 Climbing Toronto Center
Wed 11:33:37 PM 43.0167 -82.2333 73° East 410 472 23,100 600 Climbing Toronto Center
Wed 11:34:37 PM 43.0500 -82.0667 75° East 420 483 23,800 600 Climbing Toronto Center
Wed 11:35:37 PM 43.0833 -81.9167 73° East 430 495 24,300 500 Climbing Toronto Center
Wed 11:36:37 PM 43.1333 -81.7833 63° Northeast 450 518 24,800 500 Climbing Toronto Center
Wed 11:37:37 PM 43.1667 -81.6000 76° East 450 518 25,300 500 Climbing Toronto Center
Wed 11:38:37 PM 43.2167 -81.4333 68° East 460 529 25,800 500 Climbing Toronto Center
Wed 11:39:37 PM 43.2500 -81.2500 76° East 460 529 26,300 500 Climbing Toronto Center
Wed 11:40:37 PM 43.2833 -81.1000 73° East 470 541 26,800 500 Climbing Toronto Center
Wed 11:41:37 PM 43.3333 -80.9167 69° East 470 541 27,300 500 Climbing Toronto Center
Wed 11:42:37 PM 43.3833 -80.7500 68° East 470 541 27,800 500 Climbing Toronto Center
Wed 11:43:37 PM 43.4167 -80.6000 73° East 470 541 28,300 500 Climbing Toronto Center
Wed 11:44:37 PM 43.4667 -80.4167 69° East 470 541 28,800 500 Climbing Toronto Center
Wed 11:45:37 PM 43.5000 -80.2333 76° East 470 541 29,300 500 Climbing Toronto Center
Wed 11:46:37 PM 43.5500 -80.0667 67° East 470 541 29,800 550 Climbing Toronto Center
Wed 11:47:37 PM 43.5833 -79.8833 76° East 470 541 30,400 500 Climbing Toronto Center
Wed 11:48:37 PM 43.6167 -79.7333 73° East 470 541 30,800 500 Climbing Toronto Center
Wed 11:49:37 PM 43.6667 -79.5333 71° East 480 552 31,400 500 Climbing Toronto Center
Wed 11:50:37 PM 43.7167 -79.3833 65° Northeast 470 541 31,800 500 Climbing Toronto Center
Wed 11:51:37 PM 43.7667 -79.2167 67° East 470 541 32,400 500 Climbing Toronto Center
Wed 11:52:37 PM 43.8167 -79.0500 67° East 470 541 32,800 300 Climbing Toronto Center
Wed 11:53:37 PM 43.8667 -78.8667 69° East 470 541 33,000 100 Climbing Toronto Center
Wed 11:54:37 PM 43.9167 -78.7000 67° East 470 541 33,000  Level Toronto Center
Wed 11:55:37 PM 43.9667 -78.5500 65° Northeast 480 552 33,000  Level Toronto Center
Wed 11:56:37 PM 44.0000 -78.3833 74° East 480 552 33,000  Level Toronto Center
Wed 11:57:37 PM 44.0833 -78.2167 55° Northeast 480 552 33,000  Level Toronto Center
Wed 11:58:37 PM 44.1500 -78.0500 61° Northeast 480 552 33,000  Level Toronto Center
Wed 11:59:37 PM 44.2167 -77.9167 55° Northeast 480 552 33,000  Level Toronto Center
Thu 12:00:37 AM 44.3000 -77.7167 60° Northeast 480 552 33,000 -150 Level Toronto Center
Thu 12:01:37 AM 44.3667 -77.5833 55° Northeast 480 552 32,700 -1,350 Descending Toronto Center
Thu 12:02:37 AM 44.4333 -77.4167 61° Northeast 490 564 30,300 -2,450 Descending Toronto Center
Thu 12:03:37 AM 44.5000 -77.2500 61° Northeast 500 575 27,800 -2,500 Descending Toronto Center
Thu 12:04:37 AM 44.5667 -77.0833 61° Northeast 490 564 25,300 -2,750 Descending Toronto Center
Thu 12:05:37 AM 44.6500 -76.9167 55° Northeast 480 552 22,300 -3,200 Descending Toronto Center
Thu 12:06:37 AM 44.7167 -76.8000 51° Northeast 460 529 18,900 -3,150 Descending Toronto Center
Thu 12:07:37 AM 44.7833 -76.6500 58° Northeast 410 472 16,000 -2,700 Descending Toronto Center
Thu 12:08:37 AM 44.8333 -76.5333 59° Northeast 380 437 13,500 -2,450 Descending Toronto Center
Thu 12:09:37 AM 44.9000 -76.4333 47° Northeast 360 414 11,100 -2,100 Descending Toronto Center
Thu 12:10:37 AM 44.9500 -76.3333 55° Northeast 320 368 9,300 -1,550 Descending Toronto Center
Thu 12:11:37 AM 45.0000 -76.2333 55° Northeast 290 334 8,000 -1,500 Descending Toronto Center
Thu 12:12:37 AM 45.0500 -76.1333 55° Northeast 280 322 6,300 -1,600 Descending Toronto Center
Thu 12:13:37 AM 45.1000 -76.0667 43° Northeast 260 299 4,800 -1,200 Descending Toronto Center
Thu 12:14:37 AM 45.1167 -76.0000 70° East 250 288 3,900 -900 Descending Toronto Center
Thu 12:15:37 AM 45.1667 -75.9500 35° Northeast 220 253 3,000 -450 Descending Toronto Center
Thu 12:16:37 AM 45.2000 -75.8667 60° Northeast 200 230 3,000  Level Toronto Center
Thu 12:17:37 AM 45.2333 -75.8000 55° Northeast 190 219 3,000 -350 Level Toronto Center
Thu 12:18:37 AM 45.2500 -75.7500 65° Northeast 170 196 2,300 -750 Descending Toronto Center
Thu 12:19:37 AM 45.2667 -75.7000 65° Northeast 130 150 1,500 -700 Descending Toronto Center
Thu 12:20:37 AM 45.3000 -75.6667 35° Northeast 120 138 900 -550 Descending Toronto Center
Thu 12:21:37 AM 45.3167 -75.6167 65° Northeast 120 138 400 -500 Descending Toronto Center

Login

Don't have an account? Register now (free) for customized features, flight alerts, and more!